Time;durP1;ratioP1;P1;durP2;ratioP2;P2;SDS_P1;SDS_P2;PMS_P1;PMS_P2;Temp;Humidity;BMP_temperature;BMP_pressure;BME280_temperature;BME280_humidity;BME280_pressure;Samples;Min_cycle;Max_cycle;Signal;HPM_P1;HPM_P2
2022/03/20 00:00:53;;;;;;;6.53;5.90;;;19.60;44.70;;;;;;4976279;28;20208;-67
2022/03/20 00:03:22;;;;;;;8.07;5.90;;;19.60;44.70;;;;;;4960042;28;20185;-67
2022/03/20 00:05:50;;;;;;;6.50;5.75;;;19.60;44.70;;;;;;4959717;28;20319;-66
2022/03/20 00:08:17;;;;;;;6.57;5.97;;;19.60;44.70;;;;;;4959979;28;20188;-67
2022/03/20 00:10:49;;;;;;;6.97;6.28;;;19.70;44.80;;;;;;4976341;28;20211;-67
2022/03/20 00:13:22;;;;;;;6.28;5.68;;;19.60;44.60;;;;;;4976300;28;20187;-67
2022/03/20 00:15:51;;;;;;;6.60;6.00;;;19.70;44.80;;;;;;4976076;28;20171;-65
2022/03/20 00:18:20;;;;;;;7.07;6.38;;;19.60;44.60;;;;;;4976131;28;20189;-67
2022/03/20 00:20:58;;;;;;;7.50;6.72;;;19.60;44.60;;;;;;4975420;28;20276;-67
2022/03/20 00:23:26;;;;;;;8.05;7.25;;;19.70;44.60;;;;;;4975907;28;20176;-67
2022/03/20 00:25:54;;;;;;;7.50;6.68;;;19.70;44.60;;;;;;4975631;28;20300;-67
2022/03/20 00:28:23;;;;;;;6.82;6.22;;;19.60;44.60;;;;;;4959796;28;20188;-67
2022/03/20 00:30:50;;;;;;;7.97;7.28;;;19.70;44.60;;;;;;4975789;28;20208;-67
2022/03/20 00:33:16;;;;;;;8.50;7.18;;;19.70;44.60;;;;;;4992850;28;20189;-67
2022/03/20 00:35:42;;;;;;;7.57;6.82;;;19.70;44.60;;;;;;4975484;28;20199;-67
2022/03/20 00:38:08;;;;;;;7.15;6.45;;;19.60;44.60;;;;;;4959707;28;20192;-67
2022/03/20 00:40:35;;;;;;;7.30;6.50;;;19.70;44.70;;;;;;4975209;28;20601;-67
2022/03/20 00:43:04;;;;;;;7.15;6.45;;;19.70;44.70;;;;;;4975857;28;20181;-67
2022/03/20 00:45:30;;;;;;;6.80;5.80;;;19.60;44.60;;;;;;4991971;28;20219;-67
2022/03/20 00:47:56;;;;;;;7.43;6.72;;;19.70;44.70;;;;;;4959615;28;20197;-67
2022/03/20 00:50:22;;;;;;;6.97;6.30;;;19.60;44.60;;;;;;4975318;28;20219;-67
2022/03/20 00:52:48;;;;;;;6.25;5.65;;;19.60;44.60;;;;;;4975347;28;20189;-67
2022/03/20 00:55:14;;;;;;;6.72;6.07;;;19.70;44.60;;;;;;4959577;28;20199;-67
2022/03/20 00:57:40;;;;;;;7.13;6.13;;;19.60;44.60;;;;;;4959412;28;20185;-67
2022/03/20 01:00:06;;;;;;;7.57;6.72;;;19.70;44.60;;;;;;4959121;28;20213;-67
2022/03/20 01:02:44;;;;;;;6.85;6.15;;;19.60;44.60;;;;;;4992802;28;20188;-67
2022/03/20 01:05:10;;;;;;;7.35;6.65;;;19.60;44.60;;;;;;4975407;28;20209;-67
2022/03/20 01:07:37;;;;;;;8.25;7.43;;;19.70;44.60;;;;;;4958999;28;20279;-67
2022/03/20 01:10:06;;;;;;;7.75;6.95;;;19.70;44.60;;;;;;4959411;28;20205;-67
2022/03/20 01:12:33;;;;;;;8.27;7.40;;;19.70;44.50;;;;;;4958929;28;20670;-67
2022/03/20 01:15:01;;;;;;;8.05;7.25;;;19.70;44.60;;;;;;4975801;28;20185;-67
2022/03/20 01:17:26;;;;;;;7.97;7.28;;;19.60;44.40;;;;;;4958970;28;20200;-67
2022/03/20 01:19:52;;;;;;;8.18;7.38;;;19.70;44.60;;;;;;4975381;28;20181;-67
2022/03/20 01:22:18;;;;;;;8.15;7.35;;;19.60;44.60;;;;;;4974989;28;20208;-67
2022/03/20 01:24:44;;;;;;;6.70;6.10;;;19.60;44.40;;;;;;4959209;28;20208;-67
2022/03/20 01:27:09;;;;;;;7.05;6.35;;;19.60;44.60;;;;;;4992510;28;20214;-67
2022/03/20 01:29:36;;;;;;;6.43;5.82;;;19.70;44.60;;;;;;4975290;28;20185;-67
2022/03/20 01:32:02;;;;;;;6.82;6.13;;;19.60;44.60;;;;;;4992600;28;20213;-66
2022/03/20 01:34:29;;;;;;;6.88;6.18;;;19.60;44.50;;;;;;4975139;28;20189;-67
2022/03/20 01:36:54;;;;;;;6.97;6.28;;;19.60;44.60;;;;;;4959069;28;20188;-67
2022/03/20 01:39:21;;;;;;;7.35;6.60;;;19.60;44.60;;;;;;4958912;28;20180;-67
2022/03/20 01:41:47;;;;;;;6.47;5.88;;;19.60;44.50;;;;;;4975153;28;20293;-67
2022/03/20 01:44:14;;;;;;;7.32;6.63;;;19.60;44.50;;;;;;4958981;28;20180;-67
2022/03/20 01:46:40;;;;;;;6.32;5.72;;;19.60;44.40;;;;;;4993564;28;20209;-67
2022/03/20 01:49:06;;;;;;;6.78;6.07;;;19.60;44.40;;;;;;4978628;28;20185;-67
2022/03/20 01:54:24;;;;;;;8.95;8.15;;;19.60;44.40;;;;;;4960916;28;20201;-67
2022/03/20 01:56:50;;;;;;;7.78;6.97;;;19.60;44.40;;;;;;4962568;28;20181;-67
2022/03/20 01:59:17;;;;;;;8.85;7.95;;;19.60;44.30;;;;;;4978978;28;20192;-66
2022/03/20 02:01:43;;;;;;;8.27;7.47;;;19.60;44.30;;;;;;4978431;28;20235;-67
2022/03/20 02:04:14;;;;;;;7.75;6.95;;;19.60;44.40;;;;;;4962524;28;20193;-67
2022/03/20 02:06:44;;;;;;;8.93;8.02;;;19.60;44.30;;;;;;4978272;28;20216;-67
2022/03/20 02:09:11;;;;;;;6.88;6.28;;;19.60;44.30;;;;;;4962346;28;20192;-67
2022/03/20 02:11:37;;;;;;;7.03;6.32;;;19.60;44.30;;;;;;4978143;28;20208;-67
2022/03/20 02:14:05;;;;;;;6.78;6.13;;;19.60;44.40;;;;;;4978320;28;20558;-67
2022/03/20 02:16:32;;;;;;;6.80;6.20;;;19.60;44.40;;;;;;4961899;28;20614;-67
2022/03/20 02:18:59;;;;;;;6.97;6.38;;;19.60;44.40;;;;;;4978369;28;20185;-67
2022/03/20 02:21:55;;;;;;;7.07;6.38;;;19.60;44.30;;;;;;4964895;28;20240;-67
2022/03/20 02:24:36;;;;;;;7.50;6.80;;;19.70;44.40;;;;;;4949936;28;20200;-66
2022/03/20 02:27:18;;;;;;;8.45;7.65;;;19.60;44.30;;;;;;4977808;28;20250;-67
2022/03/20 02:29:55;;;;;;;8.55;7.82;;;19.60;44.40;;;;;;4978094;28;20196;-67
2022/03/20 02:32:28;;;;;;;7.65;6.90;;;19.60;44.30;;;;;;4961922;28;20205;-67
2022/03/20 02:35:00;;;;;;;7.15;6.45;;;19.60;44.30;;;;;;4977873;28;20664;-67
2022/03/20 02:37:28;;;;;;;6.85;6.25;;;19.60;44.30;;;;;;4977520;28;20189;-67
2022/03/20 02:39:58;;;;;;;7.43;6.72;;;19.60;44.40;;;;;;4977812;28;20184;-67
2022/03/20 02:42:26;;;;;;;6.95;6.30;;;19.60;44.40;;;;;;4978069;28;20195;-67
2022/03/20 02:45:07;;;;;;;6.80;6.15;;;19.60;44.30;;;;;;4961850;28;20201;-67
2022/03/20 02:47:37;;;;;;;7.22;6.53;;;19.60;44.40;;;;;;4977595;28;20251;-67
2022/03/20 02:50:09;;;;;;;7.53;6.82;;;19.60;44.40;;;;;;4961391;28;20553;-67
2022/03/20 02:53:13;;;;;;;8.50;7.10;;;19.60;44.30;;;;;;4994621;28;20647;-67
2022/03/20 02:55:45;;;;;;;8.55;7.65;;;19.60;44.40;;;;;;4958002;28;20288;-66
2022/03/20 02:58:16;;;;;;;7.93;7.13;;;19.60;44.30;;;;;;4979646;28;20197;-67
2022/03/20 03:00:44;;;;;;;7.45;6.70;;;19.70;44.50;;;;;;4969008;28;20217;-66
2022/03/20 03:03:13;;;;;;;7.07;6.38;;;19.70;44.50;;;;;;4961480;28;20262;-67
2022/03/20 03:05:42;;;;;;;7.50;6.80;;;19.70;44.40;;;;;;4960195;28;20302;-67
2022/03/20 03:10:56;;;;;;;7.30;6.60;;;19.70;44.40;;;;;;4976778;28;20291;-67
2022/03/20 03:13:30;;;;;;;7.13;6.43;;;19.70;44.50;;;;;;4977250;28;20256;-67
2022/03/20 03:15:59;;;;;;;7.53;6.82;;;19.60;44.40;;;;;;4994578;28;20172;-67
2022/03/20 03:18:26;;;;;;;8.57;7.70;;;19.70;44.40;;;;;;4976941;28;20192;-67
2022/03/20 03:20:53;;;;;;;7.97;7.18;;;19.60;44.30;;;;;;4975643;28;20217;-67
2022/03/20 03:23:20;;;;;;;8.73;7.93;;;19.60;44.30;;;;;;4976659;28;20276;-67
2022/03/20 03:25:47;;;;;;;8.02;7.22;;;19.60;44.30;;;;;;4976435;28;20711;-66
2022/03/20 03:28:14;;;;;;;9.50;8.50;;;19.70;44.40;;;;;;4960250;28;20185;-67
2022/03/20 03:30:43;;;;;;;9.15;8.25;;;19.60;44.40;;;;;;4960539;28;20213;-67
2022/03/20 03:33:11;;;;;;;7.90;7.10;;;19.60;44.30;;;;;;4960646;28;20181;-67
2022/03/20 03:35:51;;;;;;;8.25;7.55;;;19.60;44.30;;;;;;4960826;28;20184;-67
2022/03/20 03:38:20;;;;;;;7.75;6.97;;;19.60;44.30;;;;;;4976409;28;20185;-67
2022/03/20 03:40:47;;;;;;;7.40;6.70;;;19.60;44.40;;;;;;4960776;28;20217;-67
2022/03/20 03:43:17;;;;;;;8.35;7.55;;;19.70;44.50;;;;;;4960580;28;20230;-66
2022/03/20 03:45:44;;;;;;;7.57;6.88;;;19.60;44.30;;;;;;4960550;28;20221;-67
2022/03/20 03:48:11;;;;;;;7.50;6.80;;;19.70;44.50;;;;;;4960623;28;20192;-67
2022/03/20 03:53:14;;;;;;;7.70;7.00;;;19.70;44.40;;;;;;4964456;28;20225;-66
2022/03/20 03:55:43;;;;;;;7.53;6.82;;;19.60;44.30;;;;;;4951228;29;20199;-67
2022/03/20 03:58:10;;;;;;;9.25;8.25;;;19.60;44.30;;;;;;4953854;28;20210;-67
2022/03/20 04:00:36;;;;;;;8.82;8.02;;;19.70;44.40;;;;;;4955040;28;20193;-66
2022/03/20 04:03:02;;;;;;;8.57;7.78;;;19.70;44.40;;;;;;4968772;28;20202;-66
2022/03/20 04:05:29;;;;;;;8.50;7.63;;;19.70;44.40;;;;;;4937607;29;20718;-66
2022/03/20 04:07:55;;;;;;;8.93;7.95;;;19.70;44.40;;;;;;4937760;29;20193;-66
2022/03/20 04:10:22;;;;;;;9.57;8.68;;;19.60;44.30;;;;;;4937196;29;20186;-66
2022/03/20 04:12:49;;;;;;;9.32;8.45;;;19.60;44.30;;;;;;4953480;29;20619;-66
2022/03/20 04:15:21;;;;;;;7.82;7.13;;;19.70;44.40;;;;;;4953711;28;20187;-66
2022/03/20 04:17:49;;;;;;;7.60;6.90;;;19.70;44.40;;;;;;4953611;29;20274;-66
2022/03/20 04:20:14;;;;;;;7.65;6.88;;;19.70;44.40;;;;;;4954817;29;20194;-66
2022/03/20 04:23:43;;;;;;;8.10;7.40;;;19.70;44.40;;;;;;4946807;29;20210;-66
2022/03/20 04:25:32;;;;;;;7.93;7.22;;;19.60;44.40;;;;;;4965566;28;20246;-65
2022/03/20 04:27:59;;;;;;;8.48;7.68;;;19.70;44.40;;;;;;4937330;29;20269;-65
2022/03/20 04:30:27;;;;;;;7.60;6.90;;;19.60;44.40;;;;;;4953692;28;20277;-66
2022/03/20 04:32:54;;;;;;;8.38;7.57;;;19.60;44.30;;;;;;4937137;29;20210;-65
2022/03/20 04:35:23;;;;;;;8.52;7.63;;;19.70;44.40;;;;;;4953283;29;20222;-66
2022/03/20 04:37:52;;;;;;;9.68;8.70;;;19.60;44.30;;;;;;4952492;28;20182;-66
2022/03/20 04:40:18;;;;;;;9.27;8.35;;;19.60;44.30;;;;;;4940932;29;20647;-65
2022/03/20 04:42:43;;;;;;;9.75;8.82;;;19.60;44.40;;;;;;4934083;29;20242;-65
2022/03/20 04:45:11;;;;;;;9.32;8.43;;;19.60;44.40;;;;;;4935167;29;20209;-64
2022/03/20 04:58:40;;;;;;;8.23;7.43;;;19.60;44.40;;;;;;4934079;29;20191;-65
2022/03/20 05:01:08;;;;;;;8.85;7.95;;;19.70;44.50;;;;;;4933932;29;20270;-65
2022/03/20 05:03:35;;;;;;;8.70;7.80;;;19.60;44.40;;;;;;4934989;29;20187;-65
2022/03/20 05:06:07;;;;;;;8.77;7.97;;;19.70;44.50;;;;;;4934069;29;20271;-65
2022/03/20 05:08:37;;;;;;;9.00;8.18;;;19.60;44.40;;;;;;4941504;29;20201;-66
2022/03/20 05:13:48;;;;;;;7.63;6.95;;;19.60;44.40;;;;;;4954108;29;20240;-65
2022/03/20 05:16:15;;;;;;;7.88;7.07;;;19.60;44.40;;;;;;4937039;29;20186;-66
2022/03/20 05:18:41;;;;;;;7.38;6.78;;;19.60;44.50;;;;;;4936788;29;20354;-65
2022/03/20 05:21:10;;;;;;;8.20;7.40;;;19.70;44.60;;;;;;4953275;28;20217;-65
2022/03/20 05:23:37;;;;;;;8.00;7.20;;;19.60;44.40;;;;;;4956752;29;20619;-65
2022/03/20 05:26:02;;;;;;;7.68;6.97;;;19.60;44.40;;;;;;4956869;29;20304;-65
2022/03/20 05:28:28;;;;;;;7.82;7.03;;;19.70;44.50;;;;;;4940691;29;20309;-66
2022/03/20 05:30:55;;;;;;;8.32;7.53;;;19.60;44.40;;;;;;4956555;28;20181;-65
2022/03/20 05:33:21;;;;;;;7.18;6.47;;;19.60;44.40;;;;;;4940789;29;20194;-65
2022/03/20 05:35:47;;;;;;;7.90;7.15;;;19.60;44.40;;;;;;4940544;29;20190;-65
2022/03/20 05:38:13;;;;;;;8.23;7.43;;;19.70;44.50;;;;;;4935644;29;20191;-65
2022/03/20 05:40:42;;;;;;;8.68;7.88;;;19.60;44.40;;;;;;4945329;29;20191;-65
2022/03/20 05:43:08;;;;;;;9.23;8.32;;;19.60;44.40;;;;;;4937476;29;20210;-65
2022/03/20 05:45:39;;;;;;;9.55;8.65;;;19.70;44.50;;;;;;4921521;29;20221;-65
2022/03/20 05:48:07;;;;;;;8.98;8.07;;;19.60;44.40;;;;;;4937063;29;20179;-65
2022/03/20 05:50:32;;;;;;;9.05;8.15;;;19.60;44.50;;;;;;4953047;28;20183;-65
2022/03/20 05:52:58;;;;;;;9.32;8.45;;;19.60;44.40;;;;;;4936903;29;20282;-66
2022/03/20 05:58:01;;;;;;;9.35;8.45;;;19.60;44.40;;;;;;4936906;29;20234;-65
2022/03/20 05:58:13;;;;;;;8.38;7.57;;;19.60;44.40;;;;;;4952780;29;20235;-65
2022/03/20 06:00:41;;;;;;;7.60;6.90;;;19.60;44.40;;;;;;4937022;29;20189;-66
2022/03/20 06:03:11;;;;;;;7.72;7.10;;;19.60;44.40;;;;;;4936992;29;20211;-65
2022/03/20 06:05:38;;;;;;;7.25;6.55;;;19.70;44.50;;;;;;4937976;29;20294;-65
2022/03/20 06:08:05;;;;;;;7.88;7.13;;;19.70;44.50;;;;;;4940392;28;20233;-65
2022/03/20 06:10:32;;;;;;;8.27;7.47;;;19.70;44.50;;;;;;4931900;29;20221;-65
2022/03/20 06:12:59;;;;;;;7.20;6.57;;;19.70;44.50;;;;;;4939682;29;20214;-65
2022/03/20 06:15:24;;;;;;;7.88;7.18;;;19.60;44.40;;;;;;4971880;28;20221;-65
2022/03/20 06:17:50;;;;;;;7.97;7.18;;;19.70;44.50;;;;;;4939454;29;20214;-66
2022/03/20 06:20:17;;;;;;;8.27;7.47;;;19.70;44.50;;;;;;4955674;28;20190;-65
2022/03/20 06:22:44;;;;;;;8.65;7.85;;;19.70;44.50;;;;;;4955780;29;20242;-66
2022/03/20 06:25:13;;;;;;;8.27;7.57;;;19.70;44.50;;;;;;4955715;28;20228;-66
2022/03/20 06:27:48;;;;;;;9.65;8.75;;;19.70;44.50;;;;;;4939404;29;20178;-66
2022/03/20 06:30:16;;;;;;;9.50;8.60;;;19.70;44.50;;;;;;4955543;28;20182;-65
2022/03/20 06:32:44;;;;;;;10.18;9.07;;;19.60;44.40;;;;;;4938999;29;20206;-64
2022/03/20 06:35:11;;;;;;;10.35;9.32;;;19.70;44.60;;;;;;4939412;29;20194;-66
2022/03/20 06:37:55;;;;;;;9.50;8.60;;;19.70;44.50;;;;;;4955343;28;20214;-65
2022/03/20 06:40:22;;;;;;;7.47;6.88;;;19.70;44.60;;;;;;4931349;29;20190;-66
2022/03/20 06:42:49;;;;;;;8.00;7.30;;;19.70;44.60;;;;;;4955164;29;20213;-66
2022/03/20 06:45:18;;;;;;;8.13;7.32;;;19.70;44.80;;;;;;4956403;28;20639;-66
2022/03/20 06:47:44;;;;;;;7.53;6.82;;;19.70;44.60;;;;;;4939049;29;20179;-66
2022/03/20 06:50:12;;;;;;;7.90;7.10;;;19.70;44.60;;;;;;4956686;29;20183;-66
2022/03/20 06:52:38;;;;;;;7.93;7.20;;;19.60;44.50;;;;;;4952414;29;20211;-66
2022/03/20 06:55:07;;;;;;;8.27;7.45;;;19.70;44.60;;;;;;4952030;28;20191;-66
2022/03/20 06:57:33;;;;;;;7.97;7.18;;;19.70;44.60;;;;;;4923837;29;20190;-66
2022/03/20 07:00:02;;;;;;;8.05;7.25;;;19.70;44.60;;;;;;4935757;29;20195;-66
2022/03/20 07:02:36;;;;;;;8.82;8.02;;;19.70;44.50;;;;;;4944468;29;20211;-66
2022/03/20 07:05:02;;;;;;;10.90;9.90;;;19.70;44.60;;;;;;4939055;29;20225;-66
2022/03/20 07:07:29;;;;;;;10.88;9.38;;;19.70;44.50;;;;;;4938733;29;20178;-65
2022/03/20 07:09:55;;;;;;;10.00;9.10;;;19.70;44.50;;;;;;4938197;29;20211;-66
2022/03/20 07:12:21;;;;;;;8.93;8.13;;;19.70;44.50;;;;;;4954995;29;20210;-66
2022/03/20 07:14:47;;;;;;;9.65;8.75;;;19.70;44.60;;;;;;4954649;28;20258;-66
2022/03/20 07:17:16;;;;;;;9.35;8.45;;;19.70;44.50;;;;;;4954480;28;20194;-66
2022/03/20 07:19:43;;;;;;;9.85;8.95;;;19.70;44.60;;;;;;4954851;29;20274;-65
2022/03/20 07:22:12;;;;;;;8.48;7.70;;;19.70;44.60;;;;;;4954947;29;20213;-66
2022/03/20 07:24:41;;;;;;;7.82;7.13;;;19.70;44.60;;;;;;4954202;29;20328;-67
2022/03/20 07:29:54;;;;;;;8.35;7.55;;;19.70;44.60;;;;;;4955608;29;20178;-66
2022/03/20 07:32:21;;;;;;;8.35;7.60;;;19.70;44.60;;;;;;4931936;29;20305;-66
2022/03/20 07:34:47;;;;;;;8.30;7.50;;;19.70;44.60;;;;;;4962149;28;20271;-66
2022/03/20 07:37:16;;;;;;;8.68;7.78;;;19.70;44.50;;;;;;4955252;28;20182;-66
2022/03/20 07:39:51;;;;;;;8.45;7.65;;;19.70;44.50;;;;;;4929477;29;20218;-66
2022/03/20 07:42:19;;;;;;;9.38;8.48;;;19.70;44.50;;;;;;4934990;29;20205;-66
2022/03/20 07:44:48;;;;;;;9.70;8.82;;;19.70;44.50;;;;;;4918865;29;20217;-65
2022/03/20 07:47:22;;;;;;;9.90;9.00;;;19.70;44.50;;;;;;4919334;29;20235;-66
2022/03/20 07:49:49;;;;;;;11.00;9.90;;;19.70;44.50;;;;;;4935214;29;20187;-66
2022/03/20 07:52:16;;;;;;;9.77;8.88;;;19.70;44.50;;;;;;4952065;28;20305;-66
2022/03/20 07:54:45;;;;;;;10.90;9.80;;;19.80;44.40;;;;;;4953829;29;20189;-65
2022/03/20 07:57:11;;;;;;;10.25;9.30;;;19.80;44.30;;;;;;4942036;29;20203;-66
2022/03/20 07:59:37;;;;;;;9.25;8.35;;;19.90;44.30;;;;;;4934859;29;20192;-66
2022/03/20 08:02:03;;;;;;;9.15;8.30;;;19.90;44.20;;;;;;4929781;29;20297;-66
2022/03/20 08:04:29;;;;;;;8.80;8.00;;;20.00;44.20;;;;;;4953491;28;20195;-66
2022/03/20 08:06:55;;;;;;;8.52;7.72;;;20.00;44.20;;;;;;4953861;29;20221;-65
2022/03/20 08:09:20;;;;;;;8.57;7.78;;;20.00;44.20;;;;;;4929656;29;20186;-66
2022/03/20 08:11:46;;;;;;;8.38;7.65;;;20.00;44.20;;;;;;4937873;29;20680;-66
2022/03/20 08:14:12;;;;;;;9.10;8.27;;;20.00;44.00;;;;;;4934542;29;20184;-66
2022/03/20 08:16:39;;;;;;;8.38;7.57;;;20.00;44.10;;;;;;4942047;28;20224;-64
2022/03/20 08:19:07;;;;;;;8.52;7.63;;;20.10;44.00;;;;;;4945913;29;20732;-66
2022/03/20 08:21:35;;;;;;;9.23;7.55;;;20.10;44.00;;;;;;4953393;29;20286;-66
2022/03/20 08:24:05;;;;;;;8.80;8.02;;;20.10;44.10;;;;;;4969636;28;20644;-66
2022/03/20 08:26:32;;;;;;;8.90;8.00;;;20.10;44.00;;;;;;4954469;29;20214;-66
2022/03/20 08:28:59;;;;;;;8.00;7.20;;;20.10;44.00;;;;;;4969476;28;20323;-66
2022/03/20 08:31:29;;;;;;;8.02;7.32;;;20.10;44.00;;;;;;4953648;29;20206;-66
2022/03/20 08:33:59;;;;;;;8.65;7.88;;;20.10;44.00;;;;;;4933409;29;20183;-65
2022/03/20 08:36:25;;;;;;;8.32;7.63;;;20.10;44.00;;;;;;4953254;29;20186;-67
2022/03/20 08:38:52;;;;;;;8.63;7.82;;;20.20;44.10;;;;;;4950916;29;20273;-66
2022/03/20 08:41:19;;;;;;;8.50;7.75;;;20.20;44.10;;;;;;4947668;29;20221;-66
2022/03/20 08:43:45;;;;;;;8.35;7.60;;;20.10;44.00;;;;;;4937026;29;20555;-66
2022/03/20 08:46:11;;;;;;;8.15;7.18;;;20.20;44.10;;;;;;4946295;28;20250;-66
2022/03/20 08:48:37;;;;;;;9.30;8.40;;;20.20;44.10;;;;;;4943148;29;20182;-66
2022/03/20 08:51:03;;;;;;;8.98;8.10;;;20.20;44.10;;;;;;4938506;29;20233;-66
2022/03/20 08:53:29;;;;;;;8.20;7.50;;;20.20;44.10;;;;;;4938123;29;20234;-66
2022/03/20 08:55:55;;;;;;;8.23;7.43;;;20.20;44.10;;;;;;4935628;29;20199;-66
2022/03/20 08:58:21;;;;;;;8.18;7.38;;;20.20;44.00;;;;;;4936816;29;20187;-65
2022/03/20 09:00:46;;;;;;;8.88;8.07;;;20.30;44.10;;;;;;4947767;28;20222;-66
2022/03/20 09:03:13;;;;;;;8.75;7.95;;;20.20;43.90;;;;;;4953965;29;20200;-66
2022/03/20 09:05:39;;;;;;;8.82;7.95;;;20.30;44.00;;;;;;4936863;29;20222;-66
2022/03/20 09:08:05;;;;;;;8.68;7.97;;;20.30;44.00;;;;;;4948702;28;20203;-66
2022/03/20 09:10:32;;;;;;;8.98;8.07;;;20.30;44.00;;;;;;4925996;29;20205;-66
2022/03/20 09:13:00;;;;;;;8.07;7.28;;;20.30;44.00;;;;;;4933400;29;20207;-66
2022/03/20 09:15:28;;;;;;;8.98;8.18;;;20.30;44.10;;;;;;4918115;29;20195;-66
2022/03/20 09:20:42;;;;;;;8.43;7.45;;;20.30;44.00;;;;;;4935441;29;20199;-66
2022/03/20 09:23:10;;;;;;;8.02;7.25;;;20.30;44.00;;;;;;4917811;29;20210;-66
2022/03/20 09:25:36;;;;;;;9.05;8.25;;;20.30;44.00;;;;;;4935054;29;20222;-67
2022/03/20 09:28:05;;;;;;;8.68;7.78;;;20.30;43.90;;;;;;4934763;29;20171;-66
2022/03/20 09:30:32;;;;;;;9.35;8.45;;;20.30;44.00;;;;;;4933615;29;20195;-66
2022/03/20 09:33:01;;;;;;;9.05;8.15;;;20.30;44.00;;;;;;4933859;29;20211;-66
2022/03/20 09:35:27;;;;;;;7.95;7.25;;;20.30;44.00;;;;;;4933566;29;20187;-66
2022/03/20 09:37:52;;;;;;;9.43;7.55;;;20.30;44.00;;;;;;4936777;29;20191;-66
2022/03/20 09:40:22;;;;;;;8.57;7.78;;;20.30;44.00;;;;;;4940414;29;20195;-67
2022/03/20 09:42:48;;;;;;;8.90;8.00;;;20.30;44.00;;;;;;4933377;29;20222;-66
2022/03/20 09:45:18;;;;;;;8.52;7.82;;;20.30;44.10;;;;;;4968585;28;20624;-66
2022/03/20 09:47:45;;;;;;;8.27;7.47;;;20.30;44.00;;;;;;4936761;29;20202;-65
2022/03/20 09:50:13;;;;;;;8.80;8.00;;;20.30;44.00;;;;;;4936872;29;20186;-67
2022/03/20 09:52:41;;;;;;;8.93;8.10;;;20.30;44.00;;;;;;4988482;23;20233;-70
2022/03/20 09:55:10;;;;;;;8.32;7.57;;;20.30;44.10;;;;;;4971404;28;20197;-68
2022/03/20 09:57:35;;;;;;;8.07;7.35;;;20.30;44.10;;;;;;4955757;28;20200;-68
2022/03/20 10:00:10;;;;;;;8.35;7.63;;;20.40;44.20;;;;;;4971908;28;20214;-68
2022/03/20 10:02:36;;;;;;;7.95;7.18;;;20.30;44.10;;;;;;4973139;28;20201;-68
2022/03/20 10:05:07;;;;;;;8.38;7.57;;;20.30;44.10;;;;;;4948265;28;20190;-67
2022/03/20 10:07:39;;;;;;;8.23;7.43;;;20.30;44.10;;;;;;4957344;28;20189;-67
2022/03/20 10:10:25;;;;;;;7.72;7.03;;;20.30;44.20;;;;;;4975979;28;20175;-67
2022/03/20 10:12:56;;;;;;;8.93;8.13;;;20.30;44.10;;;;;;4975909;28;20296;-68
2022/03/20 10:15:42;;;;;;;7.95;7.15;;;20.30;44.20;;;;;;4976772;28;20189;-67
2022/03/20 10:18:14;;;;;;;8.60;7.72;;;20.30;44.10;;;;;;4959745;28;20174;-67
2022/03/20 10:20:46;;;;;;;8.45;7.68;;;20.30;44.10;;;;;;4975566;28;20221;-67
2022/03/20 10:23:36;;;;;;;8.43;7.57;;;20.30;44.10;;;;;;4959608;28;20244;-67
2022/03/20 10:26:17;;;;;;;7.82;7.03;;;20.30;44.10;;;;;;4959536;28;20209;-67
2022/03/20 10:28:48;;;;;;;8.02;7.32;;;20.40;44.80;;;;;;4942921;28;20277;-67
2022/03/20 10:31:22;;;;;;;8.32;7.53;;;20.30;44.10;;;;;;4958666;28;20251;-70
2022/03/20 10:34:09;;;;;;;9.02;8.15;;;20.30;44.10;;;;;;4959497;28;20224;-70
2022/03/20 10:36:36;;;;;;;9.25;8.38;;;20.40;44.20;;;;;;4964457;28;20199;-68
2022/03/20 10:39:08;;;;;;;9.25;8.45;;;20.40;44.10;;;;;;4968448;28;20280;-67
2022/03/20 10:41:34;;;;;;;8.82;8.02;;;20.40;44.00;;;;;;4975589;28;20196;-67
2022/03/20 10:44:10;;;;;;;9.27;7.70;;;20.40;44.10;;;;;;4975069;28;20193;-68
2022/03/20 10:46:36;;;;;;;9.35;8.20;;;20.40;44.10;;;;;;4947395;28;20213;-68
2022/03/20 10:49:05;;;;;;;8.27;7.47;;;20.30;44.20;;;;;;4975000;28;20237;-68
2022/03/20 10:51:40;;;;;;;7.88;7.18;;;20.40;44.20;;;;;;4958642;28;20186;-68
2022/03/20 10:54:15;;;;;;;7.75;7.00;;;20.40;44.20;;;;;;4958665;28;20240;-68
2022/03/20 10:57:00;;;;;;;8.38;7.57;;;20.40;44.20;;;;;;4959029;28;20616;-68
2022/03/20 10:59:29;;;;;;;7.40;6.80;;;20.40;44.20;;;;;;4958617;28;20264;-68
2022/03/20 11:01:57;;;;;;;8.23;7.18;;;20.40;44.20;;;;;;4958981;28;20201;-68
2022/03/20 11:04:23;;;;;;;8.40;6.93;;;20.40;44.20;;;;;;4942413;28;20196;-67
2022/03/20 11:06:54;;;;;;;7.95;7.25;;;20.40;44.10;;;;;;4958971;28;20217;-68
2022/03/20 11:09:21;;;;;;;7.60;6.90;;;20.40;44.10;;;;;;4974592;28;20185;-68
2022/03/20 11:11:51;;;;;;;8.57;7.78;;;20.40;44.00;;;;;;4958353;28;20769;-68
2022/03/20 11:14:23;;;;;;;8.27;7.40;;;20.40;44.10;;;;;;4975757;28;20194;-68
2022/03/20 11:17:06;;;;;;;8.32;7.53;;;20.40;44.00;;;;;;4975792;28;20192;-68
2022/03/20 11:19:36;;;;;;;8.10;7.30;;;20.40;43.90;;;;;;4958480;28;20224;-68
2022/03/20 11:22:09;;;;;;;8.30;7.55;;;20.40;43.90;;;;;;4958388;28;20197;-68
2022/03/20 11:24:37;;;;;;;7.70;7.03;;;20.40;43.80;;;;;;4974177;28;20219;-68
2022/03/20 11:27:05;;;;;;;8.15;7.35;;;20.40;43.80;;;;;;4958350;28;20225;-68
2022/03/20 11:29:46;;;;;;;8.32;7.53;;;20.40;43.90;;;;;;4957729;28;20198;-68
2022/03/20 11:32:14;;;;;;;7.22;6.50;;;20.40;43.80;;;;;;4958047;28;20293;-68
2022/03/20 11:34:40;;;;;;;8.25;7.28;;;20.40;43.90;;;;;;4974186;28;20192;-68
2022/03/20 11:37:11;;;;;;;7.28;6.60;;;20.40;43.90;;;;;;4975365;28;20212;-69
2022/03/20 11:40:08;;;;;;;7.35;6.65;;;20.40;43.90;;;;;;4971433;28;20253;-68
2022/03/20 11:42:34;;;;;;;7.72;7.03;;;20.40;43.70;;;;;;4973980;28;20225;-68
2022/03/20 11:44:59;;;;;;;7.43;6.72;;;20.40;43.90;;;;;;4974784;28;20189;-68
2022/03/20 11:47:30;;;;;;;7.65;6.95;;;20.40;43.70;;;;;;4958532;28;20200;-68
2022/03/20 11:50:22;;;;;;;7.20;6.50;;;20.40;43.90;;;;;;4975712;28;20178;-68
2022/03/20 11:53:01;;;;;;;7.28;6.57;;;20.40;43.80;;;;;;4957666;28;20224;-68
2022/03/20 11:55:29;;;;;;;8.55;7.30;;;20.40;43.80;;;;;;4974319;28;20182;-68
2022/03/20 11:57:57;;;;;;;7.75;7.05;;;20.40;43.90;;;;;;4958222;28;20193;-68
2022/03/20 12:00:30;;;;;;;7.47;6.72;;;20.40;44.00;;;;;;4974586;28;20186;-68
2022/03/20 12:03:13;;;;;;;8.05;7.35;;;20.40;43.50;;;;;;4974167;28;20219;-68
2022/03/20 12:06:26;;;;;;;8.13;7.43;;;20.40;43.60;;;;;;4975077;28;20194;-68
2022/03/20 12:09:05;;;;;;;7.65;6.95;;;20.40;43.70;;;;;;4973780;28;20185;-68
2022/03/20 12:11:47;;;;;;;7.60;6.78;;;20.40;43.60;;;;;;4970631;28;20186;-68
2022/03/20 12:14:33;;;;;;;7.68;7.07;;;20.50;43.50;;;;;;4938559;29;20194;-68
2022/03/20 12:17:01;;;;;;;7.65;6.85;;;20.50;43.50;;;;;;4954750;29;20189;-68
2022/03/20 12:19:44;;;;;;;8.32;7.40;;;20.40;43.50;;;;;;4955780;28;20186;-68
2022/03/20 12:22:18;;;;;;;7.68;6.97;;;20.40;43.50;;;;;;4954565;28;20282;-68
2022/03/20 12:24:52;;;;;;;7.45;6.72;;;20.40;43.50;;;;;;4938300;29;20652;-68
2022/03/20 12:27:24;;;;;;;7.68;6.97;;;20.50;43.60;;;;;;4954271;29;20202;-67
2022/03/20 12:29:50;;;;;;;7.40;6.80;;;20.40;43.40;;;;;;4937612;29;20652;-68
2022/03/20 12:32:17;;;;;;;6.93;6.28;;;20.40;43.50;;;;;;4955033;28;20282;-68
2022/03/20 12:34:56;;;;;;;7.47;6.72;;;20.40;43.40;;;;;;4970172;28;20193;-68
2022/03/20 12:37:28;;;;;;;7.63;6.85;;;20.40;43.60;;;;;;4937815;29;20190;-68
2022/03/20 12:40:07;;;;;;;7.28;6.68;;;20.50;43.70;;;;;;4964684;28;20198;-68
2022/03/20 12:42:37;;;;;;;8.60;7.78;;;20.50;43.70;;;;;;4973407;28;20213;-68
2022/03/20 12:45:07;;;;;;;7.40;6.72;;;20.50;43.50;;;;;;4957596;28;20668;-68
2022/03/20 12:47:34;;;;;;;7.25;6.45;;;20.50;43.50;;;;;;4957250;28;20181;-67
2022/03/20 12:50:10;;;;;;;7.65;6.95;;;20.40;43.50;;;;;;4957202;28;20228;-68
2022/03/20 12:52:38;;;;;;;7.30;6.70;;;20.50;43.40;;;;;;4957255;28;20213;-68
2022/03/20 12:55:08;;;;;;;7.65;6.95;;;20.50;43.60;;;;;;4957257;28;20189;-68
2022/03/20 12:57:42;;;;;;;7.60;6.60;;;20.50;43.40;;;;;;4973276;28;20173;-68
2022/03/20 13:00:14;;;;;;;7.30;6.60;;;20.50;43.60;;;;;;4956960;28;20282;-68
2022/03/20 13:03:07;;;;;;;7.50;6.78;;;20.40;43.40;;;;;;4957211;28;20202;-68
2022/03/20 13:05:50;;;;;;;7.65;6.95;;;20.40;43.50;;;;;;4957215;28;20267;-68
2022/03/20 13:08:37;;;;;;;7.38;6.78;;;20.50;43.40;;;;;;4956870;28;20219;-68
2022/03/20 13:14:03;;;;;;;7.82;7.13;;;20.50;43.60;;;;;;4973544;28;20177;-67
2022/03/20 13:16:32;;;;;;;7.53;6.82;;;20.50;43.50;;;;;;4941476;28;20257;-68
2022/03/20 13:18:57;;;;;;;7.60;6.90;;;20.40;43.50;;;;;;4956613;28;20244;-68
2022/03/20 13:21:23;;;;;;;7.28;6.57;;;20.50;43.50;;;;;;4941081;28;20186;-68
2022/03/20 13:23:49;;;;;;;6.88;6.28;;;20.40;43.40;;;;;;4957320;28;20220;-68
2022/03/20 13:26:18;;;;;;;7.03;6.43;;;20.50;43.30;;;;;;4972928;28;20210;-68
2022/03/20 13:28:48;;;;;;;7.10;6.40;;;20.50;43.30;;;;;;4972888;28;20185;-68